Details for Korean Air at RKPC




Go Back


Latest METAR
Local Time

RKPC 221700Z 08005KT 360V130 6000 -RA SCT007 BKN025 OVC070 19/17 Q1004 NOSIG

23/05/2018, 02:56:02

Description
Results
Korean Air Logo
Number of Pilots based at RKPC
0 Pilots Based here
Number of Korean Air Flights Departed from RKPC
0 Flights Departed
Number of Korean Air Flights Arrived at RKPC
0 Flights Arrived
Number of Korean Air Schedules Departing from RKPC
78 Schedules
Number of Korean Air Schedules Arriving at RKPC
73 Schedules
Number of Korean Air Schedules Departing from RKPC availible today
47 Schedules Today
Number of Korean Air Schedules Arriving at RKPC availible today
48 Schedules Today
Average Landing Rate at RKPC
0 fpm
Korean Air Average Landing Rate at RKPC
0 fpm
Total Fuel Purchased at RKPC by Korean Air
0.00 kgs / 0.00 lbs

Pilots Based at RKPC


Pilot ID
Pilot Name
Pilot Rank
No. of Flights
No. of Flying Hours
There are no pilots assigned to this hub!   Will you be the first?
Content